Terminal Aerodrome Forecast
Issued by NWS

Home | Current Version | Previous Version | Text Only | Print | Product List | Glossary Off
Versions: 1 2 3 4 5 6 7 8 9 10 11 12 13 14 15 16 17 18

675
FTUS43 KABR 231726
TAFPIR
TAF
KPIR 231726Z 2318/2418 32024G36KT P6SM SKC
     FM240100 32015G22KT P6SM SKC
     FM240400 31009KT P6SM FEW200
     FM241500 32015KT P6SM FEW250=

USA.gov is the U.S. government's official web portal to all federal, state and local government web resources and services.